sensor_id;sensor_type;location;lat;lon;timestamp;pressure;altitude;pressure_sealevel;temperature;humidity
23281;BME280;11809;56.390;-3.266;2023-06-14T00:01:35;101713.78;;;19.34;65.26
23281;BME280;11809;56.390;-3.266;2023-06-14T00:04:02;101720.06;;;19.33;65.20
23281;BME280;11809;56.390;-3.266;2023-06-14T00:06:30;101722.72;;;19.33;65.74
23281;BME280;11809;56.390;-3.266;2023-06-14T00:08:57;101728.06;;;19.33;65.39
23281;BME280;11809;56.390;-3.266;2023-06-14T00:11:24;101720.16;;;19.31;65.28
23281;BME280;11809;56.390;-3.266;2023-06-14T00:13:53;101721.97;;;19.31;65.27
23281;BME280;11809;56.390;-3.266;2023-06-14T00:16:20;101722.91;;;19.30;65.50
23281;BME280;11809;56.390;-3.266;2023-06-14T00:18:47;101712.34;;;19.28;65.52
23281;BME280;11809;56.390;-3.266;2023-06-14T00:21:15;101722.13;;;19.28;65.64
23281;BME280;11809;56.390;-3.266;2023-06-14T00:23:42;101716.91;;;19.26;65.59
23281;BME280;11809;56.390;-3.266;2023-06-14T00:26:09;101730.31;;;19.25;65.69
23281;BME280;11809;56.390;-3.266;2023-06-14T00:28:37;101732.97;;;19.25;65.49
23281;BME280;11809;56.390;-3.266;2023-06-14T00:31:04;101732.22;;;19.23;65.63
23281;BME280;11809;56.390;-3.266;2023-06-14T00:33:31;101729.56;;;19.23;65.67
23281;BME280;11809;56.390;-3.266;2023-06-14T00:35:58;101726.88;;;19.23;65.52
23281;BME280;11809;56.390;-3.266;2023-06-14T00:38:25;101724.28;;;19.21;65.66
23281;BME280;11809;56.390;-3.266;2023-06-14T00:40:52;101724.28;;;19.21;65.55
23281;BME280;11809;56.390;-3.266;2023-06-14T00:43:20;101727.94;;;19.20;65.50
23281;BME280;11809;56.390;-3.266;2023-06-14T00:45:47;101727.94;;;19.20;65.61
23281;BME280;11809;56.390;-3.266;2023-06-14T00:48:17;101730.66;;;19.19;65.54
23281;BME280;11809;56.390;-3.266;2023-06-14T00:50:45;101725.34;;;19.19;65.72
23281;BME280;11809;56.390;-3.266;2023-06-14T00:53:12;101730.66;;;19.19;65.66
23281;BME280;11809;56.390;-3.266;2023-06-14T00:55:42;101717.44;;;19.17;65.78
23281;BME280;11809;56.390;-3.266;2023-06-14T00:58:10;101723.81;;;19.15;65.44
23281;BME280;11809;56.390;-3.266;2023-06-14T01:00:37;101720.22;;;19.16;65.85
23281;BME280;11809;56.390;-3.266;2023-06-14T01:03:04;101722.94;;;19.14;65.86
23281;BME280;11809;56.390;-3.266;2023-06-14T01:05:32;101722.94;;;19.14;65.82
23281;BME280;11809;56.390;-3.266;2023-06-14T01:10:53;101717.91;;;19.10;65.89
23281;BME280;11809;56.390;-3.266;2023-06-14T01:15:55;101724.91;;;19.11;65.83
23281;BME280;11809;56.390;-3.266;2023-06-14T01:18:23;101724.16;;;19.09;66.32
23281;BME280;11809;56.390;-3.266;2023-06-14T01:20:52;101732.16;;;19.09;65.80
23281;BME280;11809;56.390;-3.266;2023-06-14T01:23:22;101724.25;;;19.07;65.66
23281;BME280;11809;56.390;-3.266;2023-06-14T01:25:50;101737.47;;;19.09;66.10
23281;BME280;11809;56.390;-3.266;2023-06-14T01:28:22;101733.13;;;19.08;65.88
23281;BME280;11809;56.390;-3.266;2023-06-14T01:30:53;101728.84;;;19.05;65.77
23281;BME280;11809;56.390;-3.266;2023-06-14T01:33:24;101734.16;;;19.05;65.86
23281;BME280;11809;56.390;-3.266;2023-06-14T01:35:53;101738.63;;;19.05;65.94
23281;BME280;11809;56.390;-3.266;2023-06-14T01:38:24;101737.66;;;19.06;65.95
23281;BME280;11809;56.390;-3.266;2023-06-14T01:40:53;101733.38;;;19.03;65.87
23281;BME280;11809;56.390;-3.266;2023-06-14T01:43:21;101729.88;;;19.03;65.98
23281;BME280;11809;56.390;-3.266;2023-06-14T01:45:51;101728.13;;;19.02;65.99
23281;BME280;11809;56.390;-3.266;2023-06-14T01:48:20;101730.81;;;19.02;65.96
23281;BME280;11809;56.390;-3.266;2023-06-14T01:50:49;101720.22;;;19.00;65.70
23281;BME280;11809;56.390;-3.266;2023-06-14T01:53:16;101718.41;;;19.01;65.86
23281;BME280;11809;56.390;-3.266;2023-06-14T01:55:43;101730.97;;;18.99;65.84
23281;BME280;11809;56.390;-3.266;2023-06-14T01:58:15;101731.75;;;19.01;65.72
23281;BME280;11809;56.390;-3.266;2023-06-14T02:00:45;101729.06;;;19.01;66.08
23281;BME280;11809;56.390;-3.266;2023-06-14T02:03:14;101738.09;;;18.98;65.99
23281;BME280;11809;56.390;-3.266;2023-06-14T02:05:42;101731.91;;;18.98;66.08
23281;BME280;11809;56.390;-3.266;2023-06-14T02:08:09;101730.22;;;18.97;66.31
23281;BME280;11809;56.390;-3.266;2023-06-14T02:10:36;101727.63;;;18.95;65.90
23281;BME280;11809;56.390;-3.266;2023-06-14T02:13:03;101724.13;;;18.95;66.11
23281;BME280;11809;56.390;-3.266;2023-06-14T02:15:30;101726.00;;;18.93;66.23
23281;BME280;11809;56.390;-3.266;2023-06-14T02:18:04;101732.13;;;18.95;66.14
23281;BME280;11809;56.390;-3.266;2023-06-14T02:20:31;101731.25;;;18.94;66.19
23281;BME280;11809;56.390;-3.266;2023-06-14T02:22:58;101730.38;;;18.94;66.22
23281;BME280;11809;56.390;-3.266;2023-06-14T02:25:25;101727.78;;;18.92;66.10
23281;BME280;11809;56.390;-3.266;2023-06-14T02:27:55;101731.31;;;18.93;66.11
23281;BME280;11809;56.390;-3.266;2023-06-14T02:30:22;101732.28;;;18.92;66.03
23281;BME280;11809;56.390;-3.266;2023-06-14T02:32:49;101723.44;;;18.91;66.20
23281;BME280;11809;56.390;-3.266;2023-06-14T02:35:17;101727.03;;;18.90;66.21
23281;BME280;11809;56.390;-3.266;2023-06-14T02:37:45;101723.50;;;18.90;66.14
23281;BME280;11809;56.390;-3.266;2023-06-14T02:40:12;101726.97;;;18.92;65.97
23281;BME280;11809;56.390;-3.266;2023-06-14T02:42:40;101727.13;;;18.89;66.26
23281;BME280;11809;56.390;-3.266;2023-06-14T02:45:07;101720.06;;;18.88;66.09
23281;BME280;11809;56.390;-3.266;2023-06-14T02:47:35;101722.75;;;18.88;66.16
23281;BME280;11809;56.390;-3.266;2023-06-14T02:50:02;101723.72;;;18.87;66.45
23281;BME280;11809;56.390;-3.266;2023-06-14T02:52:29;101717.50;;;18.86;66.34
23281;BME280;11809;56.390;-3.266;2023-06-14T02:54:56;101723.72;;;18.87;66.19
23281;BME280;11809;56.390;-3.266;2023-06-14T02:57:23;101724.53;;;18.87;66.39
23281;BME280;11809;56.390;-3.266;2023-06-14T02:59:50;101722.84;;;18.86;66.28
23281;BME280;11809;56.390;-3.266;2023-06-14T03:02:19;101721.97;;;18.86;66.21
23281;BME280;11809;56.390;-3.266;2023-06-14T03:04:46;101722.09;;;18.84;65.82
23281;BME280;11809;56.390;-3.266;2023-06-14T03:07:13;101735.28;;;18.86;66.29
23281;BME280;11809;56.390;-3.266;2023-06-14T03:09:48;101727.41;;;18.84;66.16
23281;BME280;11809;56.390;-3.266;2023-06-14T03:12:15;101730.13;;;18.83;66.54
23281;BME280;11809;56.390;-3.266;2023-06-14T03:14:42;101728.34;;;18.83;66.16
23281;BME280;11809;56.390;-3.266;2023-06-14T03:17:12;101731.00;;;18.83;66.22
23281;BME280;11809;56.390;-3.266;2023-06-14T03:19:39;101731.00;;;18.83;66.31
23281;BME280;11809;56.390;-3.266;2023-06-14T03:22:08;101725.75;;;18.82;66.41
23281;BME280;11809;56.390;-3.266;2023-06-14T03:24:35;101729.38;;;18.81;66.47
23281;BME280;11809;56.390;-3.266;2023-06-14T03:27:03;101737.38;;;18.81;66.42
23281;BME280;11809;56.390;-3.266;2023-06-14T03:29:31;101738.31;;;18.80;66.39
23281;BME280;11809;56.390;-3.266;2023-06-14T03:32:00;101749.06;;;18.78;66.06
23281;BME280;11809;56.390;-3.266;2023-06-14T03:34:27;101751.63;;;18.80;66.06
23281;BME280;11809;56.390;-3.266;2023-06-14T03:36:54;101753.50;;;18.77;66.28
23281;BME280;11809;56.390;-3.266;2023-06-14T03:39:22;101755.31;;;18.77;66.29
23281;BME280;11809;56.390;-3.266;2023-06-14T03:41:49;101755.25;;;18.79;66.26
23281;BME280;11809;56.390;-3.266;2023-06-14T03:44:17;101760.63;;;18.77;66.21
23281;BME280;11809;56.390;-3.266;2023-06-14T03:46:45;101758.06;;;18.75;66.59
23281;BME280;11809;56.390;-3.266;2023-06-14T03:49:13;101754.56;;;18.75;66.48
23281;BME280;11809;56.390;-3.266;2023-06-14T03:51:40;101753.69;;;18.74;66.33
23281;BME280;11809;56.390;-3.266;2023-06-14T03:54:07;101759.88;;;18.75;66.31
23281;BME280;11809;56.390;-3.266;2023-06-14T03:56:38;101766.13;;;18.74;66.27
23281;BME280;11809;56.390;-3.266;2023-06-14T03:59:05;101762.53;;;18.75;66.15
23281;BME280;11809;56.390;-3.266;2023-06-14T04:01:32;101763.41;;;18.75;66.43
23281;BME280;11809;56.390;-3.266;2023-06-14T04:04:00;101761.69;;;18.74;66.35
23281;BME280;11809;56.390;-3.266;2023-06-14T04:06:28;101762.53;;;18.75;66.12
23281;BME280;11809;56.390;-3.266;2023-06-14T04:08:59;101758.25;;;18.72;66.41
23281;BME280;11809;56.390;-3.266;2023-06-14T04:11:30;101760.81;;;18.74;66.45
23281;BME280;11809;56.390;-3.266;2023-06-14T04:13:58;101767.00;;;18.74;66.18
23281;BME280;11809;56.390;-3.266;2023-06-14T04:16:26;101767.94;;;18.73;66.11
23281;BME280;11809;56.390;-3.266;2023-06-14T04:18:54;101771.56;;;18.72;66.48
23281;BME280;11809;56.390;-3.266;2023-06-14T04:21:22;101768.97;;;18.71;66.29
23281;BME280;11809;56.390;-3.266;2023-06-14T04:23:50;101767.25;;;18.70;66.61
23281;BME280;11809;56.390;-3.266;2023-06-14T04:26:19;101775.25;;;18.70;66.44
23281;BME280;11809;56.390;-3.266;2023-06-14T04:28:50;101775.25;;;18.70;66.20
23281;BME280;11809;56.390;-3.266;2023-06-14T04:31:17;101779.63;;;18.71;66.44
23281;BME280;11809;56.390;-3.266;2023-06-14T04:33:45;101779.72;;;18.69;66.26
23281;BME280;11809;56.390;-3.266;2023-06-14T04:36:13;101774.38;;;18.69;66.46
23281;BME280;11809;56.390;-3.266;2023-06-14T04:38:44;101778.84;;;18.69;66.18
23281;BME280;11809;56.390;-3.266;2023-06-14T04:41:16;101785.91;;;18.70;66.38
23281;BME280;11809;56.390;-3.266;2023-06-14T04:43:43;101788.56;;;18.70;66.26
23281;BME280;11809;56.390;-3.266;2023-06-14T04:46:10;101787.72;;;18.69;66.39
23281;BME280;11809;56.390;-3.266;2023-06-14T04:48:39;101793.13;;;18.68;66.60
23281;BME280;11809;56.390;-3.266;2023-06-14T04:51:08;101781.63;;;18.67;66.27
23281;BME280;11809;56.390;-3.266;2023-06-14T04:53:35;101783.31;;;18.68;66.34
23281;BME280;11809;56.390;-3.266;2023-06-14T04:56:04;101784.28;;;18.67;66.50
23281;BME280;11809;56.390;-3.266;2023-06-14T04:58:31;101786.94;;;18.67;66.35
23281;BME280;11809;56.390;-3.266;2023-06-14T05:00:59;101787.81;;;18.68;66.34
23281;BME280;11809;56.390;-3.266;2023-06-14T05:03:26;101787.88;;;18.66;66.54
23281;BME280;11809;56.390;-3.266;2023-06-14T05:05:54;101793.28;;;18.65;66.63
23281;BME280;11809;56.390;-3.266;2023-06-14T05:08:21;101792.44;;;18.64;66.61
23281;BME280;11809;56.390;-3.266;2023-06-14T05:10:52;101800.31;;;18.66;66.41
23281;BME280;11809;56.390;-3.266;2023-06-14T05:13:19;101796.81;;;18.65;66.34
23281;BME280;11809;56.390;-3.266;2023-06-14T05:15:48;101799.50;;;18.65;66.36
23281;BME280;11809;56.390;-3.266;2023-06-14T05:18:15;101798.63;;;18.65;66.60
23281;BME280;11809;56.390;-3.266;2023-06-14T05:20:43;101803.09;;;18.64;66.69
23281;BME280;11809;56.390;-3.266;2023-06-14T05:23:10;101807.53;;;18.64;66.79
23281;BME280;11809;56.390;-3.266;2023-06-14T05:25:45;101810.13;;;18.65;66.54
23281;BME280;11809;56.390;-3.266;2023-06-14T05:28:12;101808.56;;;18.61;66.48
23281;BME280;11809;56.390;-3.266;2023-06-14T05:30:40;101806.84;;;18.60;66.75
23281;BME280;11809;56.390;-3.266;2023-06-14T05:33:08;101811.13;;;18.63;66.52
23281;BME280;11809;56.390;-3.266;2023-06-14T05:35:35;101807.53;;;18.64;66.40
23281;BME280;11809;56.390;-3.266;2023-06-14T05:38:02;101810.31;;;18.62;66.53
23281;BME280;11809;56.390;-3.266;2023-06-14T05:40:29;101817.31;;;18.63;66.30
23281;BME280;11809;56.390;-3.266;2023-06-14T05:42:56;101810.38;;;18.61;66.46
23281;BME280;11809;56.390;-3.266;2023-06-14T05:45:23;101813.03;;;18.61;66.58
23281;BME280;11809;56.390;-3.266;2023-06-14T05:47:52;101814.81;;;18.60;66.53
23281;BME280;11809;56.390;-3.266;2023-06-14T05:50:21;101807.03;;;18.57;66.68
23281;BME280;11809;56.390;-3.266;2023-06-14T05:52:48;101814.94;;;18.59;66.77
23281;BME280;11809;56.390;-3.266;2023-06-14T05:55:16;101818.53;;;18.58;66.56
23281;BME280;11809;56.390;-3.266;2023-06-14T05:57:44;101820.34;;;18.57;66.56
23281;BME280;11809;56.390;-3.266;2023-06-14T06:00:12;101818.53;;;18.58;66.56
23281;BME280;11809;56.390;-3.266;2023-06-14T06:02:44;101825.69;;;18.57;66.64
23281;BME280;11809;56.390;-3.266;2023-06-14T06:05:13;101817.69;;;18.57;66.71
23281;BME280;11809;56.390;-3.266;2023-06-14T06:07:41;101821.28;;;18.56;66.85
23281;BME280;11809;56.390;-3.266;2023-06-14T06:10:08;101824.72;;;18.58;66.68
23281;BME280;11809;56.390;-3.266;2023-06-14T06:12:36;101826.28;;;18.62;66.37
23281;BME280;11809;56.390;-3.266;2023-06-14T06:15:04;101825.25;;;18.65;66.81
23281;BME280;11809;56.390;-3.266;2023-06-14T06:17:31;101826.13;;;18.65;66.53
23281;BME280;11809;56.390;-3.266;2023-06-14T06:20:12;101834.88;;;18.67;66.34
23281;BME280;11809;56.390;-3.266;2023-06-14T06:22:39;101825.09;;;18.68;66.17
23281;BME280;11809;56.390;-3.266;2023-06-14T06:25:07;101821.56;;;18.67;66.12
23281;BME280;11809;56.390;-3.266;2023-06-14T06:27:35;101829.53;;;18.67;66.12
23281;BME280;11809;56.390;-3.266;2023-06-14T06:30:05;101823.34;;;18.67;66.29
23281;BME280;11809;56.390;-3.266;2023-06-14T06:32:32;101826.88;;;18.67;66.05
23281;BME280;11809;56.390;-3.266;2023-06-14T06:34:59;101826.78;;;18.69;66.46
23281;BME280;11809;56.390;-3.266;2023-06-14T06:37:27;101833.69;;;18.73;66.69
23281;BME280;11809;56.390;-3.266;2023-06-14T06:39:54;101832.66;;;18.75;66.74
23281;BME280;11809;56.390;-3.266;2023-06-14T06:42:22;101832.53;;;18.77;67.19
23281;BME280;11809;56.390;-3.266;2023-06-14T06:44:49;101826.97;;;18.82;67.38
23281;BME280;11809;56.390;-3.266;2023-06-14T06:47:16;101838.56;;;18.81;66.91
23281;BME280;11809;56.390;-3.266;2023-06-14T06:49:45;101846.56;;;18.81;66.86
23281;BME280;11809;56.390;-3.266;2023-06-14T06:52:13;101844.84;;;18.80;67.11
23281;BME280;11809;56.390;-3.266;2023-06-14T06:54:41;101842.00;;;18.83;67.39
23281;BME280;11809;56.390;-3.266;2023-06-14T06:57:08;101848.09;;;18.85;67.67
23281;BME280;11809;56.390;-3.266;2023-06-14T06:59:38;101852.41;;;18.87;67.34
23281;BME280;11809;56.390;-3.266;2023-06-14T07:02:05;101847.00;;;18.89;67.84
23281;BME280;11809;56.390;-3.266;2023-06-14T07:04:33;101853.09;;;18.91;67.86
23281;BME280;11809;56.390;-3.266;2023-06-14T07:07:00;101852.16;;;18.92;67.67
23281;BME280;11809;56.390;-3.266;2023-06-14T07:09:27;101859.19;;;18.93;67.87
23281;BME280;11809;56.390;-3.266;2023-06-14T07:11:55;101853.69;;;18.96;68.10
23281;BME280;11809;56.390;-3.266;2023-06-14T07:14:22;101852.75;;;18.97;67.79
23281;BME280;11809;56.390;-3.266;2023-06-14T07:16:49;101851.91;;;18.96;67.80
23281;BME280;11809;56.390;-3.266;2023-06-14T07:19:17;101849.94;;;19.00;67.80
23281;BME280;11809;56.390;-3.266;2023-06-14T07:21:44;101852.59;;;19.00;68.08
23281;BME280;11809;56.390;-3.266;2023-06-14T07:24:12;101861.34;;;19.02;67.91
23281;BME280;11809;56.390;-3.266;2023-06-14T07:26:39;101863.09;;;19.03;67.97
23281;BME280;11809;56.390;-3.266;2023-06-14T07:29:06;101859.47;;;19.04;67.53
23281;BME280;11809;56.390;-3.266;2023-06-14T07:31:33;101860.22;;;19.06;67.97
23281;BME280;11809;56.390;-3.266;2023-06-14T07:34:00;101857.50;;;19.07;67.52
23281;BME280;11809;56.390;-3.266;2023-06-14T07:36:28;101860.81;;;19.11;68.30
23281;BME280;11809;56.390;-3.266;2023-06-14T07:38:55;101857.06;;;19.15;67.74
23281;BME280;11809;56.390;-3.266;2023-06-14T07:41:23;101856.13;;;19.16;67.85
23281;BME280;11809;56.390;-3.266;2023-06-14T07:43:50;101858.78;;;19.16;67.61
23281;BME280;11809;56.390;-3.266;2023-06-14T07:46:18;101857.75;;;19.18;68.05
23281;BME280;11809;56.390;-3.266;2023-06-14T07:48:45;101853.94;;;19.22;68.16
23281;BME280;11809;56.390;-3.266;2023-06-14T07:51:12;101861.88;;;19.24;68.52
23281;BME280;11809;56.390;-3.266;2023-06-14T07:53:40;101860.03;;;19.24;68.72
23281;BME280;11809;56.390;-3.266;2023-06-14T07:56:08;101861.66;;;19.27;68.85
23281;BME280;11809;56.390;-3.266;2023-06-14T07:58:35;101861.50;;;19.30;68.74
23281;BME280;11809;56.390;-3.266;2023-06-14T08:01:02;101863.06;;;19.34;68.50
23281;BME280;11809;56.390;-3.266;2023-06-14T08:03:33;101860.28;;;19.35;68.53
23281;BME280;11809;56.390;-3.266;2023-06-14T08:06:00;101855.84;;;19.36;68.60
23281;BME280;11809;56.390;-3.266;2023-06-14T08:08:27;101861.03;;;19.39;69.00
23281;BME280;11809;56.390;-3.266;2023-06-14T08:10:55;101850.19;;;19.42;68.82
23281;BME280;11809;56.390;-3.266;2023-06-14T08:13:22;101858.19;;;19.42;67.87
23281;BME280;11809;56.390;-3.266;2023-06-14T08:15:49;101854.19;;;19.33;66.21
23281;BME280;11809;56.390;-3.266;2023-06-14T08:18:17;101856.09;;;19.31;66.38
23281;BME280;11809;56.390;-3.266;2023-06-14T08:20:44;101856.56;;;19.40;67.74
23281;BME280;11809;56.390;-3.266;2023-06-14T08:23:11;101852.56;;;19.47;67.96
23281;BME280;11809;56.390;-3.266;2023-06-14T08:25:39;101850.44;;;19.53;68.13
23281;BME280;11809;56.390;-3.266;2023-06-14T08:28:06;101846.22;;;19.49;66.76
23281;BME280;11809;56.390;-3.266;2023-06-14T08:30:33;101851.13;;;19.41;65.77
23281;BME280;11809;56.390;-3.266;2023-06-14T08:33:00;101856.69;;;19.36;65.73
23281;BME280;11809;56.390;-3.266;2023-06-14T08:35:41;101860.28;;;19.35;65.81
23281;BME280;11809;56.390;-3.266;2023-06-14T08:38:10;101854.72;;;19.40;66.53
23281;BME280;11809;56.390;-3.266;2023-06-14T08:40:40;101858.78;;;19.47;66.98
23281;BME280;11809;56.390;-3.266;2023-06-14T08:43:09;101854.97;;;19.51;66.36
23281;BME280;11809;56.390;-3.266;2023-06-14T08:45:36;101859.38;;;19.52;66.13
23281;BME280;11809;56.390;-3.266;2023-06-14T08:48:06;101857.47;;;19.54;66.31
23281;BME280;11809;56.390;-3.266;2023-06-14T08:50:36;101866.06;;;19.59;66.83
23281;BME280;11809;56.390;-3.266;2023-06-14T08:53:07;101865.00;;;19.62;67.25
23281;BME280;11809;56.390;-3.266;2023-06-14T08:55:38;101855.97;;;19.64;66.41
23281;BME280;11809;56.390;-3.266;2023-06-14T08:58:09;101852.88;;;19.72;66.79
23281;BME280;11809;56.390;-3.266;2023-06-14T09:00:42;101860.88;;;19.72;67.23
23281;BME280;11809;56.390;-3.266;2023-06-14T09:03:10;101855.44;;;19.73;66.97
23281;BME280;11809;56.390;-3.266;2023-06-14T09:05:40;101863.94;;;19.80;66.78
23281;BME280;11809;56.390;-3.266;2023-06-14T09:08:07;101859.38;;;19.82;66.99
23281;BME280;11809;56.390;-3.266;2023-06-14T09:10:35;101858.34;;;19.84;66.88
23281;BME280;11809;56.390;-3.266;2023-06-14T09:13:05;101857.19;;;19.88;67.12
23281;BME280;11809;56.390;-3.266;2023-06-14T09:15:32;101856.16;;;19.91;66.43
23281;BME280;11809;56.390;-3.266;2023-06-14T09:18:03;101856.94;;;19.93;66.86
23281;BME280;11809;56.390;-3.266;2023-06-14T09:20:31;101853.13;;;19.97;66.11
23281;BME280;11809;56.390;-3.266;2023-06-14T09:23:00;101855.59;;;20.00;66.50
23281;BME280;11809;56.390;-3.266;2023-06-14T09:25:27;101853.63;;;20.04;66.72
23281;BME280;11809;56.390;-3.266;2023-06-14T09:27:57;101854.38;;;20.06;66.59
23281;BME280;11809;56.390;-3.266;2023-06-14T09:30:24;101848.88;;;20.09;66.90
23281;BME280;11809;56.390;-3.266;2023-06-14T09:32:52;101844.28;;;20.11;66.53
23281;BME280;11809;56.390;-3.266;2023-06-14T09:35:20;101844.09;;;20.14;66.44
23281;BME280;11809;56.390;-3.266;2023-06-14T09:37:47;101844.00;;;20.15;66.33
23281;BME280;11809;56.390;-3.266;2023-06-14T09:40:20;101842.94;;;20.18;66.13
23281;BME280;11809;56.390;-3.266;2023-06-14T09:42:47;101848.84;;;20.23;66.42
23281;BME280;11809;56.390;-3.266;2023-06-14T09:45:16;101846.81;;;20.28;66.85
23281;BME280;11809;56.390;-3.266;2023-06-14T09:47:49;101846.59;;;20.31;66.08
23281;BME280;11809;56.390;-3.266;2023-06-14T09:50:32;101835.00;;;20.32;65.91
23281;BME280;11809;56.390;-3.266;2023-06-14T09:53:06;101835.66;;;20.35;65.86
23281;BME280;11809;56.390;-3.266;2023-06-14T09:55:37;101833.00;;;20.35;65.55
23281;BME280;11809;56.390;-3.266;2023-06-14T09:58:07;101832.81;;;20.38;66.65
23281;BME280;11809;56.390;-3.266;2023-06-14T10:00:36;101836.06;;;20.43;66.73
23281;BME280;11809;56.390;-3.266;2023-06-14T10:03:14;101838.63;;;20.45;66.24
23281;BME280;11809;56.390;-3.266;2023-06-14T10:05:45;101838.44;;;20.48;66.23
23281;BME280;11809;56.390;-3.266;2023-06-14T10:08:16;101841.00;;;20.49;66.52
23281;BME280;11809;56.390;-3.266;2023-06-14T10:10:46;101832.72;;;20.54;66.05
23281;BME280;11809;56.390;-3.266;2023-06-14T10:13:14;101828.31;;;20.53;65.99
23281;BME280;11809;56.390;-3.266;2023-06-14T10:16:14;101831.66;;;20.57;67.08
23281;BME280;11809;56.390;-3.266;2023-06-14T10:21:28;101824.22;;;20.62;66.93
23281;BME280;11809;56.390;-3.266;2023-06-14T10:24:04;101829.38;;;20.65;67.14
23281;BME280;11809;56.390;-3.266;2023-06-14T10:26:33;101831.94;;;20.66;66.92
23281;BME280;11809;56.390;-3.266;2023-06-14T10:29:07;101830.97;;;20.67;66.92
23281;BME280;11809;56.390;-3.266;2023-06-14T10:31:46;101828.13;;;20.70;66.95
23281;BME280;11809;56.390;-3.266;2023-06-14T10:34:29;101824.28;;;20.74;66.86
23281;BME280;11809;56.390;-3.266;2023-06-14T10:39:44;101823.91;;;20.80;66.79
23281;BME280;11809;56.390;-3.266;2023-06-14T10:42:23;101820.91;;;20.85;65.80
23281;BME280;11809;56.390;-3.266;2023-06-14T10:44:55;101816.44;;;20.85;65.36
23281;BME280;11809;56.390;-3.266;2023-06-14T10:52:33;101815.19;;;20.91;63.41
23281;BME280;11809;56.390;-3.266;2023-06-14T10:55:11;101814.13;;;20.93;63.17
23281;BME280;11809;56.390;-3.266;2023-06-14T10:57:50;101814.88;;;20.95;62.52
23281;BME280;11809;56.390;-3.266;2023-06-14T11:00:28;101811.34;;;20.95;62.71
23281;BME280;11809;56.390;-3.266;2023-06-14T11:11:06;101807.72;;;20.96;62.15
23281;BME280;11809;56.390;-3.266;2023-06-14T11:13:38;101802.19;;;20.99;61.22
23281;BME280;11809;56.390;-3.266;2023-06-14T11:16:13;101802.06;;;21.00;62.12
23281;BME280;11809;56.390;-3.266;2023-06-14T11:18:42;101801.13;;;21.01;62.19
23281;BME280;11809;56.390;-3.266;2023-06-14T11:21:09;101809.81;;;21.05;61.49
23281;BME280;11809;56.390;-3.266;2023-06-14T11:23:38;101803.50;;;21.06;61.88
23281;BME280;11809;56.390;-3.266;2023-06-14T11:26:06;101810.50;;;21.08;61.37
23281;BME280;11809;56.390;-3.266;2023-06-14T11:28:40;101804.19;;;21.09;61.07
23281;BME280;11809;56.390;-3.266;2023-06-14T11:31:08;101799.41;;;21.14;59.94
23281;BME280;11809;56.390;-3.266;2023-06-14T11:33:36;101803.69;;;21.17;60.43
23281;BME280;11809;56.390;-3.266;2023-06-14T11:36:05;101794.59;;;21.20;60.08
23281;BME280;11809;56.390;-3.266;2023-06-14T11:38:36;101810.66;;;21.20;60.38
23281;BME280;11809;56.390;-3.266;2023-06-14T11:41:04;101802.50;;;21.21;59.87
23281;BME280;11809;56.390;-3.266;2023-06-14T11:43:31;101794.41;;;21.23;59.69
23281;BME280;11809;56.390;-3.266;2023-06-14T11:46:00;101798.81;;;21.24;58.98
23281;BME280;11809;56.390;-3.266;2023-06-14T11:48:41;101796.13;;;21.24;59.63
23281;BME280;11809;56.390;-3.266;2023-06-14T11:51:09;101797.81;;;21.25;59.61
23281;BME280;11809;56.390;-3.266;2023-06-14T11:53:37;101801.25;;;21.27;59.60
23281;BME280;11809;56.390;-3.266;2023-06-14T11:56:04;101790.56;;;21.27;59.84
23281;BME280;11809;56.390;-3.266;2023-06-14T11:58:32;101798.50;;;21.28;59.41
23281;BME280;11809;56.390;-3.266;2023-06-14T12:00:59;101799.34;;;21.29;60.36
23281;BME280;11809;56.390;-3.266;2023-06-14T12:03:26;101792.09;;;21.31;60.77
23281;BME280;11809;56.390;-3.266;2023-06-14T12:06:06;101790.28;;;21.31;60.84
23281;BME280;11809;56.390;-3.266;2023-06-14T12:08:38;101791.88;;;21.34;60.41
23281;BME280;11809;56.390;-3.266;2023-06-14T12:11:12;101780.31;;;21.33;60.59
23281;BME280;11809;56.390;-3.266;2023-06-14T12:13:41;101785.66;;;21.33;60.39
23281;BME280;11809;56.390;-3.266;2023-06-14T12:16:09;101786.53;;;21.34;60.64
23281;BME280;11809;56.390;-3.266;2023-06-14T12:18:39;101786.41;;;21.35;60.69
23281;BME280;11809;56.390;-3.266;2023-06-14T12:21:08;101790.81;;;21.36;61.30
23281;BME280;11809;56.390;-3.266;2023-06-14T12:23:43;101778.19;;;21.38;60.79
23281;BME280;11809;56.390;-3.266;2023-06-14T12:26:18;101787.81;;;21.41;60.78
23281;BME280;11809;56.390;-3.266;2023-06-14T12:28:47;101784.19;;;21.42;60.70
23281;BME280;11809;56.390;-3.266;2023-06-14T12:31:15;101782.47;;;21.41;60.98
23281;BME280;11809;56.390;-3.266;2023-06-14T12:33:43;101784.19;;;21.42;60.78
23281;BME280;11809;56.390;-3.266;2023-06-14T12:36:13;101780.34;;;21.46;60.93
23281;BME280;11809;56.390;-3.266;2023-06-14T12:38:40;101780.16;;;21.49;60.51
23281;BME280;11809;56.390;-3.266;2023-06-14T12:41:08;101779.94;;;21.52;60.19
23281;BME280;11809;56.390;-3.266;2023-06-14T12:43:36;101781.66;;;21.53;60.33
23281;BME280;11809;56.390;-3.266;2023-06-14T12:46:03;101785.09;;;21.55;60.47
23281;BME280;11809;56.390;-3.266;2023-06-14T12:48:30;101785.09;;;21.55;60.21
23281;BME280;11809;56.390;-3.266;2023-06-14T12:50:58;101788.50;;;21.57;59.98
23281;BME280;11809;56.390;-3.266;2023-06-14T12:53:25;101788.38;;;21.58;59.63
23281;BME280;11809;56.390;-3.266;2023-06-14T12:55:52;101786.56;;;21.59;59.35
23281;BME280;11809;56.390;-3.266;2023-06-14T12:58:19;101782.94;;;21.60;59.72
23281;BME280;11809;56.390;-3.266;2023-06-14T13:00:47;101789.16;;;21.60;59.76
23281;BME280;11809;56.390;-3.266;2023-06-14T13:03:15;101783.91;;;21.59;59.52
23281;BME280;11809;56.390;-3.266;2023-06-14T13:05:42;101790.03;;;21.61;59.16
23281;BME280;11809;56.390;-3.266;2023-06-14T13:08:10;101796.00;;;21.64;58.11
23281;BME280;11809;56.390;-3.266;2023-06-14T13:10:37;101786.16;;;21.65;58.37
23281;BME280;11809;56.390;-3.266;2023-06-14T13:13:04;101786.16;;;21.65;57.51